Pagrindinis puslapis
METAR-TAF:

METAR-TAF

Oro uostai :

Agartala, Indija

platuma: 23-53-24N, ilguma: 91-14-32E, Aukštis: 14 m

Dabartinis oras

Ataskaita buvo paskelbta 1 valandą ir 14 minutes, ne 14:30 UTC
Ramus vėjas
Temperatūra 22°C
Drėgmė 88%
Slėgis 1014 hPa
Matomumas: 2000 m
rūkana

METAR: VEAT 191430Z 00000KT 2000 BR NSC 22/20 Q1014 NOSIG

Laikas: 21:14 (15:44 UTC)

Prognozė

Ataskaita buvo paskelbta 1 valandą ir 44 minutes, ne 14:00 UTC
Prognozė galioja nuo 19 metu 15 UTC su 19 metu 24 UTC
Vėjas kt iš Šiaurės
Matomumas: 2500 m
rūkana
Tapsmas
nuo 19 metu 22 UTC su 19 metu 24 UTC
Matomumas: 1500 m
Išsisklaidę debesys ne aukštis 10000 ft
rūkana

TAF: VEAT 191400Z 1915/1924 00000KT 2500 BR NSC BECMG 1922/1924 1500 BR SCT100

Orai ataskaitas ir orų prognozės (METAR, TAF).

turimą stotys yra geltonos ir raudonos taškus žemėlapyje.

Perkelti pele per norėdami pamatyti stoties vardą.

Tada spustelėkite, norėdami matyti oro stebėjimo ir prognozės.

Norėdami pakeisti žemėlapį: spustelėkite ant žalios mygtukų su juodo kryžiaus žemyn,; žalią mygtuką su brūkšneliu, jei norite nutolinti; arba žalių rodyklių gretimoms žemėlapius.


METAR-TAF: